Falmouth, Michigan
Current Conditions -  °F | °C
As of 5:35 AM on Saturday 22 Nov 2014 (Local Time) from KCAD Reporting Station
Light Snow Light Snow  
Wind Chill: 19°   Ceiling: 1500
Heat Index: 29°   Visibility: 7mi
Dew Point: 24°   Wind: 13mph
Humidity: 83%   Direction: 200°SSW
Pressure: 29.96"   Gusts: 20mph
Location:  44.24°N, 85.09°W
Report Text: KCAD 221035Z AUTO 20011G17KT 7SM -SN OVC015 M01/M04 A2996 RMK AO2 T10171042
Loading
Personal Weather Stations






























Interactive Weather Map New forecast layout! Learn more

10-Day Weather Forecast

Advertisements
Track Severe Weather on mobile